sensor_id;sensor_type;location;lat;lon;timestamp;pressure;altitude;pressure_sealevel;temperature;humidity
69717;BME280;65362;46.144;19.666;2022-12-24T00:01:05;99654.75;;;22.65;47.66
69717;BME280;65362;46.144;19.666;2022-12-24T00:03:34;99647.03;;;22.61;48.28
69717;BME280;65362;46.144;19.666;2022-12-24T00:06:06;99650.28;;;22.64;48.01
69717;BME280;65362;46.144;19.666;2022-12-24T00:08:34;99659.25;;;22.66;47.91
69717;BME280;65362;46.144;19.666;2022-12-24T00:11:02;99663.94;;;22.66;48.02
69717;BME280;65362;46.144;19.666;2022-12-24T00:13:29;99669.28;;;22.67;48.38
69717;BME280;65362;46.144;19.666;2022-12-24T00:15:57;99667.75;;;22.65;48.63
69717;BME280;65362;46.144;19.666;2022-12-24T00:18:25;99672.72;;;22.69;48.55
69717;BME280;65362;46.144;19.666;2022-12-24T00:20:52;99665.47;;;22.68;48.52
69717;BME280;65362;46.144;19.666;2022-12-24T00:23:20;99665.84;;;22.65;48.61
69717;BME280;65362;46.144;19.666;2022-12-24T00:25:47;99659.94;;;22.68;48.90
69717;BME280;65362;46.144;19.666;2022-12-24T00:28:15;99652.88;;;22.66;48.72
69717;BME280;65362;46.144;19.666;2022-12-24T00:30:43;99647.13;;;22.67;48.71
69717;BME280;65362;46.144;19.666;2022-12-24T00:33:10;99648.66;;;22.70;49.19
69717;BME280;65362;46.144;19.666;2022-12-24T00:35:39;99645.88;;;22.70;48.83
69717;BME280;65362;46.144;19.666;2022-12-24T00:38:07;99644.84;;;22.71;48.75
69717;BME280;65362;46.144;19.666;2022-12-24T00:40:35;99638.25;;;22.72;48.94
69717;BME280;65362;46.144;19.666;2022-12-24T00:43:02;99634.81;;;22.70;49.49
69717;BME280;65362;46.144;19.666;2022-12-24T00:45:30;99647.81;;;22.69;49.82
69717;BME280;65362;46.144;19.666;2022-12-24T00:47:57;99648.28;;;22.73;49.62
69717;BME280;65362;46.144;19.666;2022-12-24T00:50:24;99650.38;;;22.71;49.87
69717;BME280;65362;46.144;19.666;2022-12-24T00:52:52;99657.84;;;22.70;49.57
69717;BME280;65362;46.144;19.666;2022-12-24T00:55:19;99661.44;;;22.71;50.13
69717;BME280;65362;46.144;19.666;2022-12-24T00:57:46;99669.56;;;22.72;49.80
69717;BME280;65362;46.144;19.666;2022-12-24T01:00:14;99663.38;;;22.70;49.95
69717;BME280;65362;46.144;19.666;2022-12-24T01:02:44;99666.81;;;22.72;49.98
69717;BME280;65362;46.144;19.666;2022-12-24T01:05:11;99668.34;;;22.75;50.17
69717;BME280;65362;46.144;19.666;2022-12-24T01:07:41;99676.66;;;22.75;50.47
69717;BME280;65362;46.144;19.666;2022-12-24T01:10:12;99671.94;;;22.75;50.16
69717;BME280;65362;46.144;19.666;2022-12-24T01:12:41;99674.34;;;22.78;50.27
69717;BME280;65362;46.144;19.666;2022-12-24T01:15:10;99671.78;;;22.77;50.57
69717;BME280;65362;46.144;19.666;2022-12-24T01:17:38;99677.31;;;22.77;50.24
69717;BME280;65362;46.144;19.666;2022-12-24T01:20:10;99675.41;;;22.77;50.70
69717;BME280;65362;46.144;19.666;2022-12-24T01:22:39;99680.06;;;22.77;50.66
69717;BME280;65362;46.144;19.666;2022-12-24T01:25:06;99678.19;;;22.77;50.43
69717;BME280;65362;46.144;19.666;2022-12-24T01:27:34;99678.19;;;22.77;50.73
69717;BME280;65362;46.144;19.666;2022-12-24T01:30:06;99690.97;;;22.78;50.77
69717;BME280;65362;46.144;19.666;2022-12-24T01:32:34;99684.56;;;22.78;51.26
69717;BME280;65362;46.144;19.666;2022-12-24T01:35:02;99678.19;;;22.77;51.17
69717;BME280;65362;46.144;19.666;2022-12-24T01:37:29;99670.72;;;22.78;51.50
69717;BME280;65362;46.144;19.666;2022-12-24T01:39:57;99668.81;;;22.78;51.52
69717;BME280;65362;46.144;19.666;2022-12-24T01:42:47;99657.75;;;22.78;51.36
69717;BME280;65362;46.144;19.666;2022-12-24T01:50:45;99648.19;;;22.81;51.59
69717;BME280;65362;46.144;19.666;2022-12-24T01:53:13;99650.75;;;22.82;51.29
69717;BME280;65362;46.144;19.666;2022-12-24T01:55:42;99647.16;;;22.82;51.38
69717;BME280;65362;46.144;19.666;2022-12-24T01:58:12;99654.41;;;22.83;51.73
69717;BME280;65362;46.144;19.666;2022-12-24T02:00:41;99655.44;;;22.82;51.66
69717;BME280;65362;46.144;19.666;2022-12-24T02:03:08;99650.56;;;22.84;51.80
69717;BME280;65362;46.144;19.666;2022-12-24T02:05:50;99646.94;;;22.83;52.05
69717;BME280;65362;46.144;19.666;2022-12-24T02:08:19;99644.16;;;22.83;51.75
69717;BME280;65362;46.144;19.666;2022-12-24T02:10:47;99649.53;;;22.85;52.09
69717;BME280;65362;46.144;19.666;2022-12-24T02:13:17;99631.84;;;22.86;51.89
69717;BME280;65362;46.144;19.666;2022-12-24T02:15:51;99634.44;;;22.87;51.76
69717;BME280;65362;46.144;19.666;2022-12-24T02:21:28;99637.22;;;22.87;52.12
69717;BME280;65362;46.144;19.666;2022-12-24T02:32:22;99634.91;;;22.91;52.26
69717;BME280;65362;46.144;19.666;2022-12-24T02:34:57;99631.94;;;22.92;52.20
69717;BME280;65362;46.144;19.666;2022-12-24T02:37:35;99624.69;;;22.91;52.18
69717;BME280;65362;46.144;19.666;2022-12-24T02:40:24;99631.94;;;22.92;52.17
69717;BME280;65362;46.144;19.666;2022-12-24T02:42:57;99628.13;;;22.93;52.01
69717;BME280;65362;46.144;19.666;2022-12-24T02:45:30;99626.38;;;22.92;52.26
69717;BME280;65362;46.144;19.666;2022-12-24T02:47:59;99621.72;;;22.93;51.96
69717;BME280;65362;46.144;19.666;2022-12-24T02:50:27;99625.16;;;22.95;52.40
69717;BME280;65362;46.144;19.666;2022-12-24T02:52:55;99620.00;;;22.92;52.21
69717;BME280;65362;46.144;19.666;2022-12-24T02:55:35;99624.50;;;22.93;52.66
69717;BME280;65362;46.144;19.666;2022-12-24T03:01:37;99630.69;;;22.95;52.42
69717;BME280;65362;46.144;19.666;2022-12-24T03:04:44;99629.84;;;22.94;52.32
69717;BME280;65362;46.144;19.666;2022-12-24T03:07:55;99643.69;;;22.94;52.71
69717;BME280;65362;46.144;19.666;2022-12-24T03:10:40;99641.78;;;22.95;52.47
69717;BME280;65362;46.144;19.666;2022-12-24T03:13:14;99649.03;;;22.96;52.64
69717;BME280;65362;46.144;19.666;2022-12-24T03:15:43;99643.50;;;22.96;52.65
69717;BME280;65362;46.144;19.666;2022-12-24T03:18:15;99640.94;;;22.94;52.71
69717;BME280;65362;46.144;19.666;2022-12-24T03:20:53;99638.16;;;22.94;53.07
69717;BME280;65362;46.144;19.666;2022-12-24T03:23:23;99638.81;;;22.96;52.99
69717;BME280;65362;46.144;19.666;2022-12-24T03:25:51;99639.00;;;22.95;52.63
69717;BME280;65362;46.144;19.666;2022-12-24T03:28:23;99647.13;;;22.96;52.82
69717;BME280;65362;46.144;19.666;2022-12-24T03:30:53;99646.25;;;22.96;53.18
69717;BME280;65362;46.144;19.666;2022-12-24T03:33:20;99651.78;;;22.96;53.04
69717;BME280;65362;46.144;19.666;2022-12-24T03:35:48;99656.31;;;22.97;53.01
69717;BME280;65362;46.144;19.666;2022-12-24T03:38:15;99675.50;;;22.98;53.00
69717;BME280;65362;46.144;19.666;2022-12-24T03:40:43;99679.97;;;22.99;53.37
69717;BME280;65362;46.144;19.666;2022-12-24T03:43:10;99681.03;;;22.98;52.93
69717;BME280;65362;46.144;19.666;2022-12-24T03:45:38;99677.41;;;22.98;53.37
69717;BME280;65362;46.144;19.666;2022-12-24T03:48:06;99679.31;;;22.97;53.27
69717;BME280;65362;46.144;19.666;2022-12-24T03:50:33;99687.63;;;22.97;52.92
69717;BME280;65362;46.144;19.666;2022-12-24T03:53:01;99689.56;;;22.97;53.06
69717;BME280;65362;46.144;19.666;2022-12-24T03:55:28;99696.81;;;22.98;53.01
69717;BME280;65362;46.144;19.666;2022-12-24T03:57:55;99699.56;;;22.98;53.02
69717;BME280;65362;46.144;19.666;2022-12-24T04:00:23;99695.94;;;22.97;53.12
69717;BME280;65362;46.144;19.666;2022-12-24T04:02:50;99708.72;;;22.98;52.77
69717;BME280;65362;46.144;19.666;2022-12-24T04:05:19;99704.91;;;22.99;52.92
69717;BME280;65362;46.144;19.666;2022-12-24T04:07:46;99706.84;;;22.99;53.27
69717;BME280;65362;46.144;19.666;2022-12-24T04:10:15;99710.66;;;22.98;53.36
69717;BME280;65362;46.144;19.666;2022-12-24T04:12:43;99699.56;;;22.98;53.12
69717;BME280;65362;46.144;19.666;2022-12-24T04:15:10;99700.41;;;22.98;53.31
69717;BME280;65362;46.144;19.666;2022-12-24T04:17:38;99692.09;;;22.98;53.19
69717;BME280;65362;46.144;19.666;2022-12-24T04:20:06;99689.34;;;22.98;53.35
69717;BME280;65362;46.144;19.666;2022-12-24T04:22:33;99686.78;;;22.97;53.17
69717;BME280;65362;46.144;19.666;2022-12-24T04:25:01;99694.03;;;22.98;53.25
69717;BME280;65362;46.144;19.666;2022-12-24T04:27:28;99697.66;;;22.98;53.09
69717;BME280;65362;46.144;19.666;2022-12-24T04:29:57;99704.91;;;22.99;53.72
69717;BME280;65362;46.144;19.666;2022-12-24T04:32:25;99706.84;;;22.99;53.30
69717;BME280;65362;46.144;19.666;2022-12-24T04:34:53;99709.59;;;22.99;53.62
69717;BME280;65362;46.144;19.666;2022-12-24T04:37:20;99714.09;;;23.00;53.13
69717;BME280;65362;46.144;19.666;2022-12-24T04:39:48;99714.09;;;23.00;53.50
69717;BME280;65362;46.144;19.666;2022-12-24T04:42:15;99724.13;;;23.01;53.11
69717;BME280;65362;46.144;19.666;2022-12-24T04:44:43;99728.78;;;23.00;53.71
69717;BME280;65362;46.144;19.666;2022-12-24T04:47:10;99723.25;;;23.00;53.28
69717;BME280;65362;46.144;19.666;2022-12-24T04:49:37;99717.69;;;23.00;53.36
69717;BME280;65362;46.144;19.666;2022-12-24T04:52:05;99722.41;;;23.00;53.13
69717;BME280;65362;46.144;19.666;2022-12-24T04:54:32;99727.94;;;23.00;53.62
69717;BME280;65362;46.144;19.666;2022-12-24T04:56:59;99725.84;;;23.02;53.63
69717;BME280;65362;46.144;19.666;2022-12-24T04:59:27;99726.88;;;23.01;53.53
69717;BME280;65362;46.144;19.666;2022-12-24T05:01:54;99724.13;;;23.01;53.35
69717;BME280;65362;46.144;19.666;2022-12-24T05:04:22;99716.88;;;23.00;53.49
69717;BME280;65362;46.144;19.666;2022-12-24T05:06:49;99723.25;;;23.00;53.28
69717;BME280;65362;46.144;19.666;2022-12-24T05:09:17;99720.97;;;23.04;53.32
69717;BME280;65362;46.144;19.666;2022-12-24T05:11:44;99721.16;;;23.02;53.45
69717;BME280;65362;46.144;19.666;2022-12-24T05:14:11;99719.44;;;23.01;53.77
69717;BME280;65362;46.144;19.666;2022-12-24T05:16:39;99713.91;;;23.01;53.48
69717;BME280;65362;46.144;19.666;2022-12-24T05:19:07;99721.16;;;23.02;53.53
69717;BME280;65362;46.144;19.666;2022-12-24T05:21:34;99726.72;;;23.02;53.32
69717;BME280;65362;46.144;19.666;2022-12-24T05:24:01;99722.22;;;23.01;53.70
69717;BME280;65362;46.144;19.666;2022-12-24T05:26:49;99729.47;;;23.02;53.46
69717;BME280;65362;46.144;19.666;2022-12-24T05:29:17;99745.22;;;23.02;53.46
69717;BME280;65362;46.144;19.666;2022-12-24T05:31:45;99734.13;;;23.02;53.32
69717;BME280;65362;46.144;19.666;2022-12-24T05:34:14;99746.94;;;23.03;53.46
69717;BME280;65362;46.144;19.666;2022-12-24T05:36:43;99755.25;;;23.03;53.53
69717;BME280;65362;46.144;19.666;2022-12-24T05:39:15;99758.03;;;23.03;53.27
69717;BME280;65362;46.144;19.666;2022-12-24T05:41:44;99750.59;;;23.03;53.54
69717;BME280;65362;46.144;19.666;2022-12-24T05:44:12;99741.63;;;23.01;53.41
69717;BME280;65362;46.144;19.666;2022-12-24T05:46:39;99737.78;;;23.02;53.44
69717;BME280;65362;46.144;19.666;2022-12-24T05:49:07;99745.03;;;23.03;53.65
69717;BME280;65362;46.144;19.666;2022-12-24T05:51:35;99755.25;;;23.03;53.27
69717;BME280;65362;46.144;19.666;2022-12-24T05:54:03;99754.41;;;23.02;53.13
69717;BME280;65362;46.144;19.666;2022-12-24T05:56:30;99757.19;;;23.02;53.39
69717;BME280;65362;46.144;19.666;2022-12-24T05:58:58;99768.25;;;23.02;53.53
69717;BME280;65362;46.144;19.666;2022-12-24T06:01:25;99770.16;;;23.02;53.55
69717;BME280;65362;46.144;19.666;2022-12-24T06:03:53;99763.78;;;23.01;53.39
69717;BME280;65362;46.144;19.666;2022-12-24T06:06:24;99769.31;;;23.01;53.35
69717;BME280;65362;46.144;19.666;2022-12-24T06:08:53;99772.09;;;23.01;53.39
69717;BME280;65362;46.144;19.666;2022-12-24T06:11:23;99761.19;;;23.00;53.33
69717;BME280;65362;46.144;19.666;2022-12-24T06:13:51;99754.59;;;23.01;53.78
69717;BME280;65362;46.144;19.666;2022-12-24T06:16:20;99749.22;;;22.99;53.47
69717;BME280;65362;46.144;19.666;2022-12-24T06:18:49;99737.09;;;23.00;53.68
69717;BME280;65362;46.144;19.666;2022-12-24T06:21:17;99743.69;;;22.99;53.48
69717;BME280;65362;46.144;19.666;2022-12-24T06:23:45;99757.53;;;22.99;53.40
69717;BME280;65362;46.144;19.666;2022-12-24T06:26:15;99755.81;;;22.98;53.19
69717;BME280;65362;46.144;19.666;2022-12-24T06:28:43;99753.72;;;23.00;53.22
69717;BME280;65362;46.144;19.666;2022-12-24T06:31:13;99770.16;;;23.02;53.63
69717;BME280;65362;46.144;19.666;2022-12-24T06:33:41;99768.25;;;23.02;53.34
69717;BME280;65362;46.144;19.666;2022-12-24T06:36:13;99782.94;;;23.03;53.53
69717;BME280;65362;46.144;19.666;2022-12-24T06:38:48;99793.19;;;23.02;53.26
69717;BME280;65362;46.144;19.666;2022-12-24T06:41:16;99788.50;;;23.03;53.63
69717;BME280;65362;46.144;19.666;2022-12-24T06:43:45;99781.91;;;23.04;53.29
69717;BME280;65362;46.144;19.666;2022-12-24T06:46:14;99768.03;;;23.04;53.34
69717;BME280;65362;46.144;19.666;2022-12-24T06:48:45;99770.81;;;23.04;53.50
69717;BME280;65362;46.144;19.666;2022-12-24T06:51:14;99772.94;;;23.02;53.33
69717;BME280;65362;46.144;19.666;2022-12-24T06:53:42;99757.34;;;23.01;53.49
69717;BME280;65362;46.144;19.666;2022-12-24T06:56:12;99751.81;;;23.01;53.34
69717;BME280;65362;46.144;19.666;2022-12-24T06:58:40;99743.34;;;23.02;53.29
69717;BME280;65362;46.144;19.666;2022-12-24T07:01:10;99746.09;;;23.02;53.22
69717;BME280;65362;46.144;19.666;2022-12-24T07:03:38;99761.84;;;23.02;53.59
69717;BME280;65362;46.144;19.666;2022-12-24T07:06:06;99761.84;;;23.02;53.30
69717;BME280;65362;46.144;19.666;2022-12-24T07:08:36;99772.94;;;23.02;53.39
69717;BME280;65362;46.144;19.666;2022-12-24T07:11:04;99763.94;;;23.00;53.57
69717;BME280;65362;46.144;19.666;2022-12-24T07:13:31;99773.09;;;23.00;53.20
69717;BME280;65362;46.144;19.666;2022-12-24T07:16:02;99786.13;;;23.00;53.48
69717;BME280;65362;46.144;19.666;2022-12-24T07:18:30;99799.78;;;23.01;53.39
69717;BME280;65362;46.144;19.666;2022-12-24T07:20:58;99809.81;;;23.02;53.40
69717;BME280;65362;46.144;19.666;2022-12-24T07:23:26;99799.56;;;23.03;53.72
69717;BME280;65362;46.144;19.666;2022-12-24T07:25:53;99804.94;;;23.04;53.50
69717;BME280;65362;46.144;19.666;2022-12-24T07:28:20;99815.16;;;23.04;53.46
69717;BME280;65362;46.144;19.666;2022-12-24T07:30:57;99812.38;;;23.04;53.63
69717;BME280;65362;46.144;19.666;2022-12-24T07:33:25;99802.16;;;23.04;53.74
69717;BME280;65362;46.144;19.666;2022-12-24T07:36:20;99808.56;;;23.05;53.56
69717;BME280;65362;46.144;19.666;2022-12-24T07:38:47;99825.19;;;23.05;53.37
69717;BME280;65362;46.144;19.666;2022-12-24T07:41:15;99835.41;;;23.04;53.51
69717;BME280;65362;46.144;19.666;2022-12-24T07:43:43;99830.72;;;23.05;53.79
69717;BME280;65362;46.144;19.666;2022-12-24T07:46:11;99836.25;;;23.05;54.09
69717;BME280;65362;46.144;19.666;2022-12-24T07:48:38;99839.50;;;23.08;54.12
69717;BME280;65362;46.144;19.666;2022-12-24T07:51:06;99845.75;;;23.10;54.06
69717;BME280;65362;46.144;19.666;2022-12-24T07:53:33;99839.69;;;23.15;54.36
69717;BME280;65362;46.144;19.666;2022-12-24T07:56:01;99835.16;;;23.14;54.19
69717;BME280;65362;46.144;19.666;2022-12-24T07:58:35;99841.56;;;23.14;54.47
69717;BME280;65362;46.144;19.666;2022-12-24T08:01:02;99838.63;;;23.16;54.63
69717;BME280;65362;46.144;19.666;2022-12-24T08:03:29;99845.88;;;23.17;55.00
69717;BME280;65362;46.144;19.666;2022-12-24T08:05:57;99850.56;;;23.16;55.05
69717;BME280;65362;46.144;19.666;2022-12-24T08:08:24;99844.81;;;23.18;55.00
69717;BME280;65362;46.144;19.666;2022-12-24T08:10:52;99853.44;;;23.23;55.32
69717;BME280;65362;46.144;19.666;2022-12-24T08:13:19;99850.19;;;23.19;54.94
69717;BME280;65362;46.144;19.666;2022-12-24T08:15:47;99848.47;;;23.18;54.50
69717;BME280;65362;46.144;19.666;2022-12-24T08:18:14;99850.91;;;23.13;54.34
69717;BME280;65362;46.144;19.666;2022-12-24T08:20:42;99856.44;;;23.13;53.33
69717;BME280;65362;46.144;19.666;2022-12-24T08:23:09;99844.03;;;23.09;53.51
69717;BME280;65362;46.144;19.666;2022-12-24T08:25:37;99850.81;;;23.07;53.00
69717;BME280;65362;46.144;19.666;2022-12-24T08:28:08;99850.50;;;23.02;53.28
69717;BME280;65362;46.144;19.666;2022-12-24T08:30:36;99868.16;;;23.01;53.07
69717;BME280;65362;46.144;19.666;2022-12-24T08:33:03;99870.28;;;22.99;52.68
69717;BME280;65362;46.144;19.666;2022-12-24T08:35:31;99876.00;;;22.97;52.58
69717;BME280;65362;46.144;19.666;2022-12-24T08:37:58;99871.69;;;22.95;52.40
69717;BME280;65362;46.144;19.666;2022-12-24T08:40:26;99878.09;;;22.95;52.42
69717;BME280;65362;46.144;19.666;2022-12-24T08:42:53;99886.56;;;22.94;52.32
69717;BME280;65362;46.144;19.666;2022-12-24T08:45:21;99886.56;;;22.94;52.01
69717;BME280;65362;46.144;19.666;2022-12-24T08:47:48;99884.88;;;22.93;52.17
69717;BME280;65362;46.144;19.666;2022-12-24T08:50:16;99895.94;;;22.93;51.63
69717;BME280;65362;46.144;19.666;2022-12-24T08:52:43;99905.13;;;22.93;52.04
69717;BME280;65362;46.144;19.666;2022-12-24T08:55:11;99906.16;;;22.92;51.71
69717;BME280;65362;46.144;19.666;2022-12-24T08:57:38;99911.91;;;22.91;51.47
69717;BME280;65362;46.144;19.666;2022-12-24T09:00:06;99916.56;;;22.90;51.70
69717;BME280;65362;46.144;19.666;2022-12-24T09:02:34;99924.03;;;22.90;51.90
69717;BME280;65362;46.144;19.666;2022-12-24T09:05:02;99922.31;;;22.89;51.50
69717;BME280;65362;46.144;19.666;2022-12-24T09:07:30;99916.94;;;22.87;51.44
69717;BME280;65362;46.144;19.666;2022-12-24T09:09:57;99936.81;;;22.91;51.50
69717;BME280;65362;46.144;19.666;2022-12-24T09:12:25;99931.63;;;22.88;51.28
69717;BME280;65362;46.144;19.666;2022-12-24T09:14:52;99943.75;;;22.87;51.59
69717;BME280;65362;46.144;19.666;2022-12-24T09:17:29;99941.69;;;22.89;51.57
69717;BME280;65362;46.144;19.666;2022-12-24T09:19:56;99941.88;;;22.87;51.62
69717;BME280;65362;46.144;19.666;2022-12-24T09:22:23;99934.78;;;22.85;51.80
69717;BME280;65362;46.144;19.666;2022-12-24T09:24:54;99940.16;;;22.86;51.63
69717;BME280;65362;46.144;19.666;2022-12-24T09:27:22;99938.59;;;22.84;51.33
69717;BME280;65362;46.144;19.666;2022-12-24T09:29:49;99941.00;;;22.87;51.72
69717;BME280;65362;46.144;19.666;2022-12-24T09:32:17;99943.25;;;22.83;51.55
69717;BME280;65362;46.144;19.666;2022-12-24T09:34:44;99957.81;;;22.85;51.80
69717;BME280;65362;46.144;19.666;2022-12-24T09:37:11;99959.03;;;22.83;51.74
69717;BME280;65362;46.144;19.666;2022-12-24T09:39:39;99953.66;;;22.81;51.60
69717;BME280;65362;46.144;19.666;2022-12-24T09:42:41;99966.47;;;22.82;51.87
69717;BME280;65362;46.144;19.666;2022-12-24T09:45:15;99971.16;;;22.82;51.67
69717;BME280;65362;46.144;19.666;2022-12-24T09:47:51;99975.44;;;22.84;51.86
69717;BME280;65362;46.144;19.666;2022-12-24T09:52:59;99976.88;;;22.80;51.82
69717;BME280;65362;46.144;19.666;2022-12-24T09:57:59;99977.06;;;22.79;51.83
69717;BME280;65362;46.144;19.666;2022-12-24T10:00:32;99983.47;;;22.79;51.64
69717;BME280;65362;46.144;19.666;2022-12-24T10:03:14;99989.19;;;22.78;51.78
69717;BME280;65362;46.144;19.666;2022-12-24T10:06:00;99992.81;;;22.78;51.88
69717;BME280;65362;46.144;19.666;2022-12-24T10:16:52;100001.63;;;22.82;51.96
69717;BME280;65362;46.144;19.666;2022-12-24T10:19:36;99990.91;;;22.79;51.85
69717;BME280;65362;46.144;19.666;2022-12-24T10:22:23;99999.22;;;22.79;51.73
69717;BME280;65362;46.144;19.666;2022-12-24T10:25:08;99995.59;;;22.78;51.55
69717;BME280;65362;46.144;19.666;2022-12-24T10:27:42;99983.81;;;22.76;52.01
69717;BME280;65362;46.144;19.666;2022-12-24T10:30:16;99988.50;;;22.76;51.61
69717;BME280;65362;46.144;19.666;2022-12-24T10:32:51;99985.72;;;22.76;51.72
69717;BME280;65362;46.144;19.666;2022-12-24T10:35:22;99993.00;;;22.77;51.74
69717;BME280;65362;46.144;19.666;2022-12-24T10:37:50;99990.41;;;22.75;51.96
69717;BME280;65362;46.144;19.666;2022-12-24T10:40:34;99994.22;;;22.74;51.88
69717;BME280;65362;46.144;19.666;2022-12-24T10:43:13;99997.88;;;22.75;51.83
69717;BME280;65362;46.144;19.666;2022-12-24T10:45:49;100004.25;;;22.75;52.13
69717;BME280;65362;46.144;19.666;2022-12-24T10:48:23;100003.56;;;22.73;52.26
69717;BME280;65362;46.144;19.666;2022-12-24T10:50:57;99998.03;;;22.73;52.02
69717;BME280;65362;46.144;19.666;2022-12-24T10:53:55;99996.81;;;22.76;52.25
69717;BME280;65362;46.144;19.666;2022-12-24T10:56:24;99993.38;;;22.74;52.04
69717;BME280;65362;46.144;19.666;2022-12-24T10:58:53;100002.72;;;22.73;52.18
69717;BME280;65362;46.144;19.666;2022-12-24T11:01:45;100003.19;;;22.76;52.25
69717;BME280;65362;46.144;19.666;2022-12-24T11:04:18;100001.69;;;22.74;52.18
69717;BME280;65362;46.144;19.666;2022-12-24T11:07:00;100004.06;;;22.77;52.28
69717;BME280;65362;46.144;19.666;2022-12-24T11:09:39;100001.47;;;22.75;51.92
69717;BME280;65362;46.144;19.666;2022-12-24T11:12:21;100003.41;;;22.75;52.46
69717;BME280;65362;46.144;19.666;2022-12-24T11:14:59;100006.16;;;22.75;52.03
69717;BME280;65362;46.144;19.666;2022-12-24T11:17:28;100006.16;;;22.75;52.45
69717;BME280;65362;46.144;19.666;2022-12-24T11:19:56;100009.97;;;22.74;52.26
69717;BME280;65362;46.144;19.666;2022-12-24T11:22:29;100009.09;;;22.73;52.14
69717;BME280;65362;46.144;19.666;2022-12-24T11:25:06;100011.72;;;22.75;52.55
69717;BME280;65362;46.144;19.666;2022-12-24T11:27:47;100012.56;;;22.75;52.52
69717;BME280;65362;46.144;19.666;2022-12-24T11:30:24;100011.72;;;22.75;52.10
69717;BME280;65362;46.144;19.666;2022-12-24T11:35:31;100007.22;;;22.74;52.43
69717;BME280;65362;46.144;19.666;2022-12-24T11:40:35;100007.22;;;22.74;52.83
69717;BME280;65362;46.144;19.666;2022-12-24T11:43:03;100008.94;;;22.75;52.58
69717;BME280;65362;46.144;19.666;2022-12-24T11:45:47;99992.66;;;22.72;52.61
69717;BME280;65362;46.144;19.666;2022-12-24T11:48:32;100001.84;;;22.72;52.68
69717;BME280;65362;46.144;19.666;2022-12-24T11:51:05;100011.88;;;22.73;52.65
69717;BME280;65362;46.144;19.666;2022-12-24T11:53:38;100015.69;;;22.72;52.73
69717;BME280;65362;46.144;19.666;2022-12-24T11:56:16;100013.59;;;22.74;52.25
69717;BME280;65362;46.144;19.666;2022-12-24T11:58:55;100010.16;;;22.72;52.53
69717;BME280;65362;46.144;19.666;2022-12-24T12:01:37;100005.66;;;22.71;52.23
69717;BME280;65362;46.144;19.666;2022-12-24T12:04:21;100000.13;;;22.71;52.55
69717;BME280;65362;46.144;19.666;2022-12-24T12:07:21;99993.72;;;22.71;52.23
69717;BME280;65362;46.144;19.666;2022-12-24T12:09:59;100005.50;;;22.73;52.36
69717;BME280;65362;46.144;19.666;2022-12-24T12:12:33;100009.09;;;22.73;52.07
69717;BME280;65362;46.144;19.666;2022-12-24T12:15:10;100016.75;;;22.71;52.47
69717;BME280;65362;46.144;19.666;2022-12-24T12:17:53;100018.47;;;22.72;52.32
69717;BME280;65362;46.144;19.666;2022-12-24T12:20:24;100023.13;;;22.72;52.02
69717;BME280;65362;46.144;19.666;2022-12-24T12:26:00;100025.06;;;22.71;52.24
69717;BME280;65362;46.144;19.666;2022-12-24T12:28:43;100036.13;;;22.71;51.85
69717;BME280;65362;46.144;19.666;2022-12-24T12:31:39;100036.97;;;22.72;52.28
69717;BME280;65362;46.144;19.666;2022-12-24T12:34:05;100036.97;;;22.72;52.05
69717;BME280;65362;46.144;19.666;2022-12-24T12:39:41;100042.72;;;22.70;52.14
69717;BME280;65362;46.144;19.666;2022-12-24T12:47:54;100047.19;;;22.71;51.80
69717;BME280;65362;46.144;19.666;2022-12-24T12:50:47;100050.34;;;22.68;52.09
69717;BME280;65362;46.144;19.666;2022-12-24T12:56:28;100044.81;;;22.68;51.73
69717;BME280;65362;46.144;19.666;2022-12-24T12:59:03;100053.97;;;22.69;51.94
69717;BME280;65362;46.144;19.666;2022-12-24T13:01:40;100056.72;;;22.69;51.87
69717;BME280;65362;46.144;19.666;2022-12-24T13:04:17;100061.44;;;22.68;51.57
69717;BME280;65362;46.144;19.666;2022-12-24T13:20:22;100083.56;;;22.68;51.79
69717;BME280;65362;46.144;19.666;2022-12-24T13:25:45;100097.22;;;22.70;51.94
69717;BME280;65362;46.144;19.666;2022-12-24T13:28:34;100102.97;;;22.68;51.87
69717;BME280;65362;46.144;19.666;2022-12-24T13:33:58;100102.25;;;22.66;52.08
69717;BME280;65362;46.144;19.666;2022-12-24T13:37:12;100103.97;;;22.67;51.54
69717;BME280;65362;46.144;19.666;2022-12-24T13:45:41;100113.16;;;22.68;51.42
69717;BME280;65362;46.144;19.666;2022-12-24T13:50:49;100117.81;;;22.67;51.57
69717;BME280;65362;46.144;19.666;2022-12-24T13:56:08;100122.00;;;22.63;51.82
69717;BME280;65362;46.144;19.666;2022-12-24T13:58:43;100118.03;;;22.66;51.28
69717;BME280;65362;46.144;19.666;2022-12-24T14:01:17;100129.44;;;22.63;51.40
69717;BME280;65362;46.144;19.666;2022-12-24T14:03:52;100123.03;;;22.62;51.30
69717;BME280;65362;46.144;19.666;2022-12-24T14:06:24;100123.91;;;22.63;51.48
69717;BME280;65362;46.144;19.666;2022-12-24T14:09:05;100130.31;;;22.63;51.61
69717;BME280;65362;46.144;19.666;2022-12-24T14:16:57;100142.59;;;22.61;51.27
69717;BME280;65362;46.144;19.666;2022-12-24T14:19:28;100148.31;;;22.59;51.10
69717;BME280;65362;46.144;19.666;2022-12-24T14:24:42;100149.34;;;22.58;51.11
69717;BME280;65362;46.144;19.666;2022-12-24T14:30:05;100160.75;;;22.63;51.12
69717;BME280;65362;46.144;19.666;2022-12-24T14:32:38;100168.56;;;22.60;50.91
69717;BME280;65362;46.144;19.666;2022-12-24T14:37:42;100179.47;;;22.61;50.99
69717;BME280;65362;46.144;19.666;2022-12-24T14:40:15;100176.19;;;22.58;50.91
69717;BME280;65362;46.144;19.666;2022-12-24T14:54:34;100184.28;;;22.59;50.93
69717;BME280;65362;46.144;19.666;2022-12-24T14:59:51;100204.03;;;22.56;50.73
69717;BME280;65362;46.144;19.666;2022-12-24T15:05:37;100216.16;;;22.55;50.67